Filippo Del Vecchio

Recruteur - Fiorentina
3 Déc 2028
Dimanche
Processus

Personnalité

Adaptabilité (18) Ambition (1) Controverse (12) Loyauté (14) Pression (1) Professionnalisme (16) Sportivité (1) Tempérament (15)

Profil

Style d'entraînement Démocratique
Diplôme Continental Pro
Détermination 14
Gestion des joueurs 9
Motivation 14
Discipline 10
Satisfaction professionnelle
100%
Fatigue
0%
Rôle Recruteur
Salaire 71.0K p/s
Contrat 14.03.2030

Performance

Comportement Bon
Efficacité de l'entraînement
54%
Développement des joueurs
55%
Prévention des blessures
60%
Mise en place tactique
65%

Événements récents

A évalué un joueur maintenant
A participé à une réunion de recrutement maintenant
A recommandé une cible de transfert maintenant
A participé à une réunion de recrutement maintenant
A participé à une réunion de recrutement 7j
A évalué un joueur 7j
A évalué un joueur 7j
A évalué un joueur 7j

Suivi en cours

120
Joueur Club Statut Capacité Confiance Observé Dernière observation Dernier vote
Chris Rigg West Ham United Actif 142 / 139 40% 5 29.11.2028 -
Louis Page Leicester City Actif 136 / 142 40% 9 29.11.2028 -
Matteo Palma Udinese Actif 134 / 146 40% 6 29.11.2028 -
Davinchi Getafe Actif 128 / 132 40% 4 29.11.2028 -
Ezra Mayers West Ham United Actif 130 / 136 40% 6 27.11.2028 -
Ronan Kpakio AC Milan Actif 128 / 135 40% 3 27.11.2028 -
Moses Sesay Southampton Actif 118 / 119 40% 2 27.11.2028 -
Daniel Banjaqui Benfica Actif 132 / 132 40% 6 26.11.2028 -
Noah Markmann Esbjerg Actif 124 / 131 40% 4 26.11.2028 -
Josh King Newcastle United Actif 148 / 150 40% 2 26.11.2028 -
Celías Ingenthron Platense Actif 118 / 131 40% 5 24.11.2028 -
Germán Barbas Racing Santander Actif 119 / 130 40% 3 24.11.2028 -
Diego León Rotherham United Actif 127 / 135 40% 5 24.11.2028 -
Miguel Figueiredo Benfica Actif 127 / 124 40% 9 21.11.2028 -
Axel Tape Bayer Leverkusen Actif 138 / 142 40% 4 21.11.2028 -
Rafael Mota Sporting CP Actif 120 / 129 40% 3 21.11.2028 -
Felipe Pujol Vélez Actif 111 / 123 40% 2 21.11.2028 -
Christos Mouzakitis Hull City Actif 143 / 153 40% 5 17.11.2028 -
Ale Gomes Zaragoza Actif 120 / 137 40% 2 17.11.2028 -
Harrison Armstrong Ipswich Town Actif 140 / 146 40% 2 17.11.2028 -
Luka Vušković Tottenham Actif 151 / 160 40% 5 16.11.2028 -
Andrija Bulatović Chamois Niortais Actif 134 / 143 40% 3 16.11.2028 -
José Neto Benfica Actif 126 / 139 40% 3 16.11.2028 -
Trey Nyoni Rotherham United Actif 145 / 151 40% 9 14.11.2028 -
Matías Magdaleno Estudiantes Actif 110 / 121 40% 6 14.11.2028 -
Salvador Blopá Wolverhampton Actif 128 / 123 40% 3 14.11.2028 -
Eman Košpo Zorya Actif 110 / 117 40% 3 12.11.2028 -
Aidan Borland Espanyol Actif 114 / 126 40% 1 12.11.2028 -
Vitaly Bondarev Ural Actif 110 / 126 40% 1 12.11.2028 -
Olivier Mambwa Young Boys Actif 115 / 131 40% 3 09.11.2028 -
Ayyoub Bouaddi Stoke City Actif 153 / 156 40% 4 09.11.2028 -
Callum Olusesi Tottenham Actif 122 / 134 40% 1 09.11.2028 -
Federico Matarán Giana Erminio Actif 108 / 124 40% 1 06.11.2028 -
Tyler Fletcher Rotherham United Actif 118 / 123 40% 7 05.11.2028 -
Malte Heyde Esbjerg Actif 114 / 132 40% 1 05.11.2028 -
Cheveyo Tsawa Club Brugge Actif 131 / 137 40% 7 04.11.2028 -
Sergio Martínez Real Madrid Actif 120 / 121 40% 1 04.11.2028 -
Tobías Ramírez River Plate Actif 131 / 126 40% 5 02.11.2028 -
Alexis Vossah Toulouse FC Actif 130 / 140 40% 1 02.11.2028 -
Alain Taho Pergolettese Actif 110 / 115 52% 1 / 1m 01.11.2028 -
Riccardo Stronati Pergolettese Actif 107 / 107 30% 1 / 1m 01.11.2028 -
Davide Bragantini Mantova Actif 137 / 137 42% 1 / 1m 01.11.2028 -
Tommaso Marras Mantova Actif 126 / 129 30% 1 / 1m 01.11.2028 -
Darryl Bakola Sassuolo Actif 118 / 131 40% 1 23.10.2028 -
Kiani Inge Groningen Actif 117 / 130 40% 5 21.10.2028 -
Aarón Martín Al-Qadisiyah Actif 120 / 111 40% 3 21.10.2028 -
Tobías Andrada River Plate Actif 118 / 121 40% 3 19.10.2028 -
Augusto Bando Ascoli Actif 115 / 127 40% 7 15.10.2028 -
Andrey Ivlev Nizhniy Novgorod Actif 116 / 123 40% 5 15.10.2028 -
Veljko Milosavljević Bournemouth Actif 150 / 145 40% 5 15.10.2028 -
Abubacarr Sedi Kinteh Al-Ahli Actif 139 / 128 40% 2 07.10.2028 -
Kyllian Antonio RC Lens Actif 121 / 119 40% 1 07.10.2028 -
Alejandro Almaraz NK Celje Actif 117 / 127 40% 2 06.10.2028 -
Riquelme Thompson-Jones Accrington Stanley Actif 113 / 129 40% 5 03.10.2028 -
Felipe Obradovich Ferro Carril Oeste Actif 109 / 121 40% 2 02.10.2028 -
Mirza Ćatović VfB Stuttgart Actif 128 / 125 40% 1 25.09.2028 -
Rhys Chadwick Blackpool Actif 109 / 119 40% 1 25.09.2028 -
Grady Makiobo Juventus Actif 115 / 129 40% 1 24.09.2028 -
Triston Rowe Derby County Actif 119 / 133 40% 1 23.09.2028 -
Honest Ahanor Atalanta Actif 141 / 146 40% 1 23.09.2028 -
Dmitry Pestryakov Real Sociedad Actif 121 / 129 40% 1 22.09.2028 -
Lamine Ballo Inter Actif 112 / 118 40% 1 22.09.2028 -
Wout Gielen Juventus Actif 110 / 116 40% 1 20.09.2028 -
Agustín Medina Lanús Actif 119 / 120 40% 1 18.09.2028 -
Matias Mancuso Inter Actif 112 / 115 40% 1 18.09.2028 -
Jayden Ngwashi Manchester United Actif 116 / 121 40% 1 17.09.2028 -
Jaydan Kamason Manchester United Actif 116 / 116 40% 1 16.09.2028 -
Francesco Verde Juventus Actif 112 / 126 40% 1 13.09.2028 -
Ayden Heaven Portsmouth Actif 151 / 159 40% 7 12.09.2028 -
Bade Aluko Leicester City Actif 126 / 128 40% 4 11.09.2028 -
Fabio Rispoli Como Actif 120 / 126 40% 4 11.09.2028 -
Jan Bürger Northampton Town Actif 123 / 125 40% 2 10.09.2028 -
Sam Alabi Newcastle United Actif 111 / 123 40% 1 09.09.2028 -
Andrés Cuenca Como Actif 118 / 126 40% 1 07.09.2028 -
Branimir Mlačić Udinese Actif 126 / 121 40% 1 07.09.2028 -
Matai Akinmboni Bournemouth Actif 114 / 113 40% 1 05.09.2028 -
Giovanni Leoni Lincoln City Actif 145 / 151 40% 6 04.09.2028 -
Matthias Braunöder Carrarese Rapport prêt 132 / 128 95% 1 03.07.2028 -
Devyne Rensch Virtus Entella Rapport prêt 147 / 151 95% 1 07.06.2028 -
Edoardo Goldaniga Catania Rapport prêt 126 / 125 95% 1 02.06.2028 -
Franculino Brighton Actif 147 / 147 40% 1 02.06.2028 -
Ibrahim Osman Norwich City Actif 143 / 140 40% 1 02.06.2028 -
Jorthy Mokio ADO Den Haag Actif 133 / 132 40% 6 29.05.2028 -
Jofre Torrents Ajax Actif 132 / 141 40% 2 29.05.2028 -
Nejc Viher NK Maribor Actif 118 / 132 40% 2 28.05.2028 -
David Blanc Le Havre AC Actif 109 / 112 40% 1 28.05.2028 -
Andrea Cogoni Cosenza Actif 109 / 111 40% 2 22.05.2028 -
Martim Cunha Porto Actif 108 / 113 40% 4 22.05.2028 -
Josh Nichols Oldham Athletic Actif 122 / 126 40% 3 21.05.2028 -
Bernardo Lima Porto Actif 109 / 124 40% 6 17.05.2028 -
Sascha Britschgi AC Milan Actif 122 / 128 40% 2 17.05.2028 -
Gustavo Albarracín Alavés Actif 117 / 120 40% 1 19.04.2028 -
Halam Loboa Sevilla Actif 125 / 120 40% 2 15.04.2028 -
Nicolas Sport Recife Actif 108 / 106 40% 1 15.04.2028 -
Vittorio Magni Cesena Actif 110 / 126 40% 1 11.04.2028 -
Thiago Silvero Vélez Actif 129 / 130 40% 2 04.04.2028 -
Sergiu Perciun Torino Actif 112 / 114 40% 1 03.04.2028 -
Jason Witsel PSV Actif 125 / 136 40% 2 01.04.2028 -
Noahkai Banks FC Augsburg Actif 140 / 138 40% 1 24.03.2028 -
Kacper Sezonienko Hellas Verona Actif 115 / 118 42% 1 / 1m 19.01.2028 -
Luca D'Andrea Sassuolo Actif 127 / 130 30% 1 / 1m 19.01.2028 -
Jaygo van Ommeren Utrecht Actif 102 / 121 40% 2 21.05.2027 -
Bence Dárdai VfL Wolfsburg Actif 131 / 127 40% 1 14.05.2027 -
Eliás Montiel Borussia Dortmund Actif 130 / 132 40% 1 14.05.2027 -
Samuele di Benedetto Twente Actif 112 / 119 40% 2 06.05.2027 -
Erick Dolly Black Aces Actif 111 / 112 40% 1 01.04.2027 -
Filippo Distefano Empoli Actif 118 / 120 40% 1 01.04.2027 -
Sindre Walle Egeli Udinese Actif 131 / 125 40% 2 28.03.2027 -
David Romero Parma Actif 126 / 132 40% 1 28.03.2027 -
Manfred Ugalde Spartak Moscow Actif 128 / 138 40% 1 25.03.2027 -
Jeff Ekhator Juventus Actif 128 / 140 40% 1 21.03.2027 Plus d'infos
Maksim Samorodov Akhmat Grozny Actif 124 / 121 40% 1 18.03.2027 -
Giorgi Kvernadze Frosinone Actif 123 / 132 40% 1 18.03.2027 -
Ádin Molnár MTK Budapest Actif 108 / 126 40% 1 08.03.2027 -
José Martínes CSKA 1948 Actif 109 / 102 40% 1 07.03.2027 -
Massimo Zilli Spezia Actif 108 / 105 40% 1 04.03.2027 -
Luca Pandolfi Avellino Actif 115 / 115 30% 1 / 1m 20.01.2027 -
Bogdan Kostić Partizan Actif 112 / 117 30% 1 / 1m 04.11.2026 -
Federico Tonin AlbinoLeffe Actif 79 / 84 30% 1 / 1m 04.11.2026 -
Fali Candé Sassuolo Actif 124 / 112 83% 1 17.08.2026 Approuver